Time;durP1;ratioP1;P1;durP2;ratioP2;P2;SDS_P1;SDS_P2;PMS_P1;PMS_P2;Temp;Humidity;BMP_temperature;BMP_pressure;BME280_temperature;BME280_humidity;BME280_pressure;Samples;Min_cycle;Max_cycle;Signal;HPM_P1;HPM_P2
2022/03/06 00:01:48;;;;;;;;;86.00;70.00;;;;;;;;5071548;27;51310;-59
2022/03/06 00:04:14;;;;;;;;;89.00;71.25;;;;;;;;5072537;27;51933;-60
2022/03/06 00:06:39;;;;;;;;;87.75;69.00;;;;;;;;5070098;27;51041;-60
2022/03/06 00:09:04;;;;;;;;;88.75;72.00;;;;;;;;5072611;28;51133;-60
2022/03/06 00:11:30;;;;;;;;;84.25;68.00;;;;;;;;5065033;27;51711;-60
2022/03/06 00:13:55;;;;;;;;;93.00;74.50;;;;;;;;5063176;27;51193;-60
2022/03/06 00:16:20;;;;;;;;;91.75;77.75;;;;;;;;5057540;27;51100;-60
2022/03/06 00:18:45;;;;;;;;;89.00;73.50;;;;;;;;5063980;27;51115;-61
2022/03/06 00:21:13;;;;;;;;;81.75;64.00;;;;;;;;5062546;28;51182;-60
2022/03/06 00:23:39;;;;;;;;;88.25;65.75;;;;;;;;5060182;27;51132;-60
2022/03/06 00:26:04;;;;;;;;;91.25;72.00;;;;;;;;5063713;27;52419;-60
2022/03/06 00:28:30;;;;;;;;;86.50;67.00;;;;;;;;5062315;27;51539;-61
2022/03/06 00:30:55;;;;;;;;;86.25;69.50;;;;;;;;5062581;27;51310;-61
2022/03/06 00:33:20;;;;;;;;;83.75;64.25;;;;;;;;5061292;28;53615;-59
2022/03/06 00:35:45;;;;;;;;;87.00;70.00;;;;;;;;5057339;27;52028;-60
2022/03/06 00:38:11;;;;;;;;;89.00;72.50;;;;;;;;5063322;27;51694;-60
2022/03/06 00:40:36;;;;;;;;;88.50;67.50;;;;;;;;5058350;27;51407;-60
2022/03/06 00:43:02;;;;;;;;;83.00;63.75;;;;;;;;5067157;27;51186;-62
2022/03/06 00:45:27;;;;;;;;;89.00;67.25;;;;;;;;5067347;27;51226;-60
2022/03/06 00:47:52;;;;;;;;;86.00;67.50;;;;;;;;5066426;27;51879;-60
2022/03/06 00:50:18;;;;;;;;;86.25;64.00;;;;;;;;5059905;27;51405;-61
2022/03/06 00:52:43;;;;;;;;;84.00;64.75;;;;;;;;5057763;27;51640;-61
2022/03/06 00:55:09;;;;;;;;;84.00;67.75;;;;;;;;5060461;27;51375;-60
2022/03/06 00:57:34;;;;;;;;;87.25;70.00;;;;;;;;5068152;28;51285;-60
2022/03/06 00:59:59;;;;;;;;;83.25;67.00;;;;;;;;5070121;28;51309;-60
2022/03/06 01:02:26;;;;;;;;;81.25;62.25;;;;;;;;5061372;27;52127;-60
2022/03/06 01:04:51;;;;;;;;;83.25;62.50;;;;;;;;5067363;28;51154;-60
2022/03/06 01:07:17;;;;;;;;;84.00;64.25;;;;;;;;5065989;27;51032;-60
2022/03/06 01:09:42;;;;;;;;;89.75;68.75;;;;;;;;5058056;27;51755;-60
2022/03/06 01:12:08;;;;;;;;;80.75;62.00;;;;;;;;5059912;27;52937;-60
2022/03/06 01:14:33;;;;;;;;;86.75;65.50;;;;;;;;5060520;27;51127;-59
2022/03/06 01:16:59;;;;;;;;;84.25;67.75;;;;;;;;5069331;27;52529;-60
2022/03/06 01:19:24;;;;;;;;;79.00;61.00;;;;;;;;5065384;27;51457;-58
2022/03/06 01:21:49;;;;;;;;;81.50;60.75;;;;;;;;5073514;27;51106;-60
2022/03/06 01:24:15;;;;;;;;;80.00;62.50;;;;;;;;5061233;27;50979;-61
2022/03/06 01:26:40;;;;;;;;;83.00;65.25;;;;;;;;5066391;27;51675;-59
2022/03/06 01:29:05;;;;;;;;;81.50;63.50;;;;;;;;5064938;27;53646;-60
2022/03/06 01:31:30;;;;;;;;;83.25;64.50;;;;;;;;5071970;27;53426;-60
2022/03/06 01:33:56;;;;;;;;;82.75;65.25;;;;;;;;5064247;27;51262;-62
2022/03/06 01:36:21;;;;;;;;;87.00;66.75;;;;;;;;5051243;27;52616;-61
2022/03/06 01:38:46;;;;;;;;;89.75;69.00;;;;;;;;5066130;27;51090;-63
2022/03/06 01:41:12;;;;;;;;;84.25;63.25;;;;;;;;5055044;27;52477;-60
2022/03/06 01:43:37;;;;;;;;;84.75;66.00;;;;;;;;5057820;27;51682;-61
2022/03/06 01:46:02;;;;;;;;;86.25;67.00;;;;;;;;5064220;27;51309;-60
2022/03/06 01:48:27;;;;;;;;;87.25;69.50;;;;;;;;5061477;27;51071;-61
2022/03/06 01:50:53;;;;;;;;;83.50;63.00;;;;;;;;5064591;27;51256;-62
2022/03/06 01:53:18;;;;;;;;;84.75;65.00;;;;;;;;5072429;27;51178;-61
2022/03/06 01:55:43;;;;;;;;;83.50;65.50;;;;;;;;5072231;28;51329;-61
2022/03/06 01:58:09;;;;;;;;;82.00;64.00;;;;;;;;5070912;27;51292;-61
2022/03/06 02:00:36;;;;;;;;;79.00;63.00;;;;;;;;5067767;27;51973;-60
2022/03/06 02:03:02;;;;;;;;;84.75;63.50;;;;;;;;5068036;27;51113;-60
2022/03/06 02:05:27;;;;;;;;;75.00;59.00;;;;;;;;5073228;27;51042;-60
2022/03/06 02:07:52;;;;;;;;;82.75;64.00;;;;;;;;5072681;28;51360;-60
2022/03/06 02:10:17;;;;;;;;;83.00;64.50;;;;;;;;5068263;27;51953;-60
2022/03/06 02:12:43;;;;;;;;;81.25;64.50;;;;;;;;5071742;27;50902;-60
2022/03/06 02:15:09;;;;;;;;;79.00;62.50;;;;;;;;5066596;27;51215;-61
2022/03/06 02:17:37;;;;;;;;;78.75;63.25;;;;;;;;5061802;27;51215;-60
2022/03/06 02:20:06;;;;;;;;;78.50;62.50;;;;;;;;5071213;27;52214;-60
2022/03/06 02:22:33;;;;;;;;;78.00;59.00;;;;;;;;5065476;27;51143;-60
2022/03/06 02:24:59;;;;;;;;;76.50;61.50;;;;;;;;5071992;27;52524;-61
2022/03/06 02:27:24;;;;;;;;;79.50;62.75;;;;;;;;5071192;27;51138;-60
2022/03/06 02:29:50;;;;;;;;;78.00;62.50;;;;;;;;5070676;27;51920;-60
2022/03/06 02:32:16;;;;;;;;;80.75;64.25;;;;;;;;5063132;27;51238;-60
2022/03/06 02:34:43;;;;;;;;;87.25;64.00;;;;;;;;5066465;27;51144;-60
2022/03/06 02:37:08;;;;;;;;;82.00;64.00;;;;;;;;5071906;28;51483;-60
2022/03/06 02:39:34;;;;;;;;;78.00;61.25;;;;;;;;5070417;27;51240;-60
2022/03/06 02:42:01;;;;;;;;;70.25;54.25;;;;;;;;5072643;28;51106;-60
2022/03/06 02:44:27;;;;;;;;;76.75;60.75;;;;;;;;5061161;27;51414;-60
2022/03/06 02:46:52;;;;;;;;;75.50;60.75;;;;;;;;5062718;27;51214;-60
2022/03/06 02:49:18;;;;;;;;;73.50;55.75;;;;;;;;5059641;27;52380;-63
2022/03/06 02:51:44;;;;;;;;;79.50;61.25;;;;;;;;5065719;27;52410;-60
2022/03/06 02:54:10;;;;;;;;;83.75;63.25;;;;;;;;5064298;27;51172;-61
2022/03/06 02:56:36;;;;;;;;;76.25;60.00;;;;;;;;5071449;27;51102;-60
2022/03/06 02:59:02;;;;;;;;;77.75;61.50;;;;;;;;5062758;27;51766;-60
2022/03/06 03:01:27;;;;;;;;;75.00;59.75;;;;;;;;5063636;27;51239;-59
2022/03/06 03:03:52;;;;;;;;;82.25;64.75;;;;;;;;5064371;27;51392;-60
2022/03/06 03:06:17;;;;;;;;;82.00;62.75;;;;;;;;5070105;27;52078;-60
2022/03/06 03:08:43;;;;;;;;;78.50;61.00;;;;;;;;5068896;27;51983;-60
2022/03/06 03:11:08;;;;;;;;;78.75;61.00;;;;;;;;5071493;27;51040;-60
2022/03/06 03:13:33;;;;;;;;;75.50;60.75;;;;;;;;5065320;27;53277;-60
2022/03/06 03:15:58;;;;;;;;;76.75;60.75;;;;;;;;5069895;27;51486;-60
2022/03/06 03:18:24;;;;;;;;;76.25;60.00;;;;;;;;5070285;27;52913;-60
2022/03/06 03:20:49;;;;;;;;;74.75;60.00;;;;;;;;5062711;27;51115;-60
2022/03/06 03:23:14;;;;;;;;;77.75;59.75;;;;;;;;5071709;28;51569;-60
2022/03/06 03:25:39;;;;;;;;;77.00;60.00;;;;;;;;5062103;27;51260;-60
2022/03/06 03:28:05;;;;;;;;;81.25;63.50;;;;;;;;5071666;28;51917;-60
2022/03/06 03:30:30;;;;;;;;;81.25;63.00;;;;;;;;5067939;27;51146;-60
2022/03/06 03:32:55;;;;;;;;;77.75;61.50;;;;;;;;5069066;27;51518;-60
2022/03/06 03:35:20;;;;;;;;;77.00;61.50;;;;;;;;5070013;27;51049;-60
2022/03/06 03:37:46;;;;;;;;;80.75;62.75;;;;;;;;5064525;27;51111;-60
2022/03/06 03:40:11;;;;;;;;;76.75;59.75;;;;;;;;5065108;27;52284;-60
2022/03/06 03:42:36;;;;;;;;;79.00;60.75;;;;;;;;5068454;27;51868;-60
2022/03/06 03:45:02;;;;;;;;;83.50;65.75;;;;;;;;5067368;27;51110;-60
2022/03/06 03:47:28;;;;;;;;;83.50;67.75;;;;;;;;5073203;27;51957;-60
2022/03/06 03:49:53;;;;;;;;;79.25;63.00;;;;;;;;5071778;27;51056;-60
2022/03/06 03:52:18;;;;;;;;;86.00;65.75;;;;;;;;5068413;27;51163;-60
2022/03/06 03:54:44;;;;;;;;;77.25;62.75;;;;;;;;5068176;27;51200;-60
2022/03/06 03:57:09;;;;;;;;;77.50;60.75;;;;;;;;5071641;27;51651;-60
2022/03/06 03:59:34;;;;;;;;;79.75;63.50;;;;;;;;5070722;27;51130;-60
2022/03/06 04:02:00;;;;;;;;;76.75;60.75;;;;;;;;5070426;27;51938;-60
2022/03/06 04:04:26;;;;;;;;;80.50;62.75;;;;;;;;5071342;27;51547;-60
2022/03/06 04:06:51;;;;;;;;;78.25;62.75;;;;;;;;5074932;27;52716;-60
2022/03/06 04:09:16;;;;;;;;;84.25;64.75;;;;;;;;5071343;27;51159;-60
2022/03/06 04:11:42;;;;;;;;;84.25;66.25;;;;;;;;5073427;28;51036;-60
2022/03/06 04:14:07;;;;;;;;;81.25;64.00;;;;;;;;5072110;28;51287;-60
2022/03/06 04:16:32;;;;;;;;;86.25;67.00;;;;;;;;5075125;28;51028;-60
2022/03/06 04:18:57;;;;;;;;;78.25;61.75;;;;;;;;5070833;27;51293;-60
2022/03/06 04:21:22;;;;;;;;;81.50;64.25;;;;;;;;5074717;27;51009;-60
2022/03/06 04:23:48;;;;;;;;;77.50;62.25;;;;;;;;5065150;27;54177;-60
2022/03/06 04:26:13;;;;;;;;;80.00;61.25;;;;;;;;5077477;27;51097;-60
2022/03/06 04:28:38;;;;;;;;;80.25;61.25;;;;;;;;5072192;27;51128;-60
2022/03/06 04:31:03;;;;;;;;;84.50;64.00;;;;;;;;5073082;27;51263;-60
2022/03/06 04:33:29;;;;;;;;;71.00;59.00;;;;;;;;5071018;27;51072;-60
2022/03/06 04:35:54;;;;;;;;;84.00;65.25;;;;;;;;5068659;27;52920;-60
2022/03/06 04:38:19;;;;;;;;;79.75;61.75;;;;;;;;5071151;27;51107;-60
2022/03/06 04:40:46;;;;;;;;;81.25;63.50;;;;;;;;5062656;27;51099;-63
2022/03/06 04:43:12;;;;;;;;;84.00;64.25;;;;;;;;5071986;27;51204;-60
2022/03/06 04:45:37;;;;;;;;;76.25;61.25;;;;;;;;5071159;28;52245;-60
2022/03/06 04:48:02;;;;;;;;;76.00;61.00;;;;;;;;5073906;27;51168;-60
2022/03/06 04:50:27;;;;;;;;;73.50;59.25;;;;;;;;5070683;27;51092;-61
2022/03/06 04:52:52;;;;;;;;;80.75;65.75;;;;;;;;5070119;27;51011;-61
2022/03/06 04:55:18;;;;;;;;;80.50;62.75;;;;;;;;5062850;27;51135;-61
2022/03/06 04:57:46;;;;;;;;;80.75;62.00;;;;;;;;5073056;28;50951;-61
2022/03/06 05:00:11;;;;;;;;;85.25;65.00;;;;;;;;5068153;27;51088;-60
2022/03/06 05:02:37;;;;;;;;;77.75;62.25;;;;;;;;5071876;27;50975;-61
2022/03/06 05:05:02;;;;;;;;;84.75;63.00;;;;;;;;5064138;27;51347;-61
2022/03/06 05:07:27;;;;;;;;;81.50;64.25;;;;;;;;5065213;27;51248;-61
2022/03/06 05:09:52;;;;;;;;;78.75;61.50;;;;;;;;5067791;27;51292;-61
2022/03/06 05:12:17;;;;;;;;;82.25;63.25;;;;;;;;5074498;28;51225;-61
2022/03/06 05:14:43;;;;;;;;;82.25;63.00;;;;;;;;5072544;28;52180;-62
2022/03/06 05:17:08;;;;;;;;;80.00;64.00;;;;;;;;5072137;28;51041;-61
2022/03/06 05:19:33;;;;;;;;;79.00;61.25;;;;;;;;5068495;27;51298;-61
2022/03/06 05:21:59;;;;;;;;;73.25;59.00;;;;;;;;5070997;27;51459;-61
2022/03/06 05:24:24;;;;;;;;;80.50;63.00;;;;;;;;5064468;27;51214;-61
2022/03/06 05:26:49;;;;;;;;;74.75;60.50;;;;;;;;5073437;27;51205;-61
2022/03/06 05:29:14;;;;;;;;;78.75;63.25;;;;;;;;5067683;27;51291;-60
2022/03/06 05:31:40;;;;;;;;;81.00;64.00;;;;;;;;5068386;27;51188;-60
2022/03/06 05:34:05;;;;;;;;;79.75;63.25;;;;;;;;5072057;27;51844;-60
2022/03/06 05:36:30;;;;;;;;;78.00;61.75;;;;;;;;5067582;27;50991;-60
2022/03/06 05:38:55;;;;;;;;;81.25;63.50;;;;;;;;5069484;27;51182;-60
2022/03/06 05:41:20;;;;;;;;;87.25;66.00;;;;;;;;5066552;27;51513;-60
2022/03/06 05:43:46;;;;;;;;;76.75;61.25;;;;;;;;5064321;27;51384;-61
2022/03/06 05:46:11;;;;;;;;;81.25;64.50;;;;;;;;5067448;27;51104;-61
2022/03/06 05:48:36;;;;;;;;;82.50;64.25;;;;;;;;5066394;27;51352;-61
2022/03/06 05:51:02;;;;;;;;;74.75;61.75;;;;;;;;5068943;27;51408;-62
2022/03/06 05:53:27;;;;;;;;;82.75;64.25;;;;;;;;5070188;27;51148;-61
2022/03/06 05:55:52;;;;;;;;;80.75;64.25;;;;;;;;5094954;27;51116;-61
2022/03/06 05:58:18;;;;;;;;;76.00;60.75;;;;;;;;5071854;27;51163;-61
2022/03/06 06:00:43;;;;;;;;;88.25;66.25;;;;;;;;5072590;27;51284;-60
2022/03/06 06:03:08;;;;;;;;;84.75;64.50;;;;;;;;5072453;28;52012;-61
2022/03/06 06:05:33;;;;;;;;;87.00;67.00;;;;;;;;5072621;27;51051;-61
2022/03/06 06:07:58;;;;;;;;;77.00;62.75;;;;;;;;5066425;27;51112;-62
2022/03/06 06:10:24;;;;;;;;;83.50;63.25;;;;;;;;5063401;27;51180;-63
2022/03/06 06:12:49;;;;;;;;;79.50;63.75;;;;;;;;5071545;28;52053;-62
2022/03/06 06:15:14;;;;;;;;;75.50;57.50;;;;;;;;5065764;27;51146;-61
2022/03/06 06:17:39;;;;;;;;;84.75;63.75;;;;;;;;5066611;27;51441;-60
2022/03/06 06:20:05;;;;;;;;;81.75;61.25;;;;;;;;5070717;27;51181;-60
2022/03/06 06:22:31;;;;;;;;;81.25;62.75;;;;;;;;5067598;27;51451;-60
2022/03/06 06:24:57;;;;;;;;;86.00;63.00;;;;;;;;5069855;27;51243;-60
2022/03/06 06:27:23;;;;;;;;;81.75;64.25;;;;;;;;5072052;27;50967;-59
2022/03/06 06:29:48;;;;;;;;;85.75;67.00;;;;;;;;5071719;27;51213;-60
2022/03/06 06:32:14;;;;;;;;;81.00;63.75;;;;;;;;5069758;27;51077;-59
2022/03/06 06:34:39;;;;;;;;;80.00;62.50;;;;;;;;5071022;27;51217;-59
2022/03/06 06:37:05;;;;;;;;;85.25;65.50;;;;;;;;5072322;27;51187;-59
2022/03/06 06:39:30;;;;;;;;;82.75;64.50;;;;;;;;5071668;27;51059;-60
2022/03/06 06:41:55;;;;;;;;;85.50;66.50;;;;;;;;5076082;27;51276;-59
2022/03/06 06:44:20;;;;;;;;;79.75;63.75;;;;;;;;5070147;28;50952;-59
2022/03/06 06:46:46;;;;;;;;;83.25;64.00;;;;;;;;5071500;28;51110;-59
2022/03/06 06:49:11;;;;;;;;;83.75;66.00;;;;;;;;5069338;27;51297;-60
2022/03/06 06:51:38;;;;;;;;;86.00;64.50;;;;;;;;5070941;28;52021;-60
2022/03/06 06:54:03;;;;;;;;;81.50;62.25;;;;;;;;5071094;28;50889;-60
2022/03/06 06:56:28;;;;;;;;;81.75;64.50;;;;;;;;5067388;27;51073;-59
2022/03/06 06:58:53;;;;;;;;;82.00;63.25;;;;;;;;5070892;28;51409;-60
2022/03/06 07:01:19;;;;;;;;;82.25;64.25;;;;;;;;5056726;28;52080;-60
2022/03/06 07:03:44;;;;;;;;;81.75;64.00;;;;;;;;5074284;27;51016;-60
2022/03/06 07:06:09;;;;;;;;;83.50;64.25;;;;;;;;5073202;27;51273;-59
2022/03/06 07:08:34;;;;;;;;;84.25;67.00;;;;;;;;5070857;27;51065;-59
2022/03/06 07:11:00;;;;;;;;;83.75;65.00;;;;;;;;5061341;27;54808;-59
2022/03/06 07:13:25;;;;;;;;;80.50;64.25;;;;;;;;5068483;27;51005;-59
2022/03/06 07:15:50;;;;;;;;;80.00;62.00;;;;;;;;5071135;27;51168;-59
2022/03/06 07:18:15;;;;;;;;;74.00;60.25;;;;;;;;5090252;27;51117;-61
2022/03/06 07:20:40;;;;;;;;;84.25;65.25;;;;;;;;5063080;27;51176;-60
2022/03/06 07:23:06;;;;;;;;;82.75;65.75;;;;;;;;5059508;27;51158;-60
2022/03/06 07:25:31;;;;;;;;;81.50;63.75;;;;;;;;5070726;27;50944;-60
2022/03/06 07:27:57;;;;;;;;;84.50;64.50;;;;;;;;5065460;27;51971;-60
2022/03/06 07:30:22;;;;;;;;;86.25;67.25;;;;;;;;5057368;27;52443;-60
2022/03/06 07:32:48;;;;;;;;;77.50;61.00;;;;;;;;5061263;27;51159;-60
2022/03/06 07:35:14;;;;;;;;;74.50;61.00;;;;;;;;5067344;27;51166;-60
2022/03/06 07:37:39;;;;;;;;;84.25;63.50;;;;;;;;5064149;27;51317;-60
2022/03/06 07:40:05;;;;;;;;;75.25;60.25;;;;;;;;5068989;28;51266;-59
2022/03/06 07:42:31;;;;;;;;;84.25;65.00;;;;;;;;5063982;27;51136;-59
2022/03/06 07:44:56;;;;;;;;;82.00;63.75;;;;;;;;5066085;27;51282;-59
2022/03/06 07:47:21;;;;;;;;;81.50;64.50;;;;;;;;5064821;27;51224;-59
2022/03/06 07:49:47;;;;;;;;;81.50;65.00;;;;;;;;5061953;27;51205;-60
2022/03/06 07:52:12;;;;;;;;;77.75;61.50;;;;;;;;5057382;27;52999;-60
2022/03/06 07:54:37;;;;;;;;;81.75;63.00;;;;;;;;5062371;27;52101;-60
2022/03/06 07:57:03;;;;;;;;;81.00;62.00;;;;;;;;5065448;27;51183;-59
2022/03/06 07:59:28;;;;;;;;;78.00;62.50;;;;;;;;5067601;27;52945;-59
2022/03/06 08:01:53;;;;;;;;;79.50;62.50;;;;;;;;5060805;27;51304;-60
2022/03/06 08:04:19;;;;;;;;;73.75;56.25;;;;;;;;5062464;27;52455;-60
2022/03/06 08:06:45;;;;;;;;;74.50;58.00;;;;;;;;5061242;27;50891;-60
2022/03/06 08:09:10;;;;;;;;;73.50;59.25;;;;;;;;5068828;28;51273;-60
2022/03/06 08:11:35;;;;;;;;;77.25;60.50;;;;;;;;5064546;27;51220;-60
2022/03/06 08:14:00;;;;;;;;;73.50;57.25;;;;;;;;5067691;28;51072;-60
2022/03/06 08:16:25;;;;;;;;;71.00;56.75;;;;;;;;5064060;27;54121;-60
2022/03/06 08:18:51;;;;;;;;;71.50;56.25;;;;;;;;5066786;27;52188;-60
2022/03/06 08:21:16;;;;;;;;;74.00;57.25;;;;;;;;5065757;27;51208;-60
2022/03/06 08:23:41;;;;;;;;;75.50;60.50;;;;;;;;5059091;27;51111;-60
2022/03/06 08:26:07;;;;;;;;;71.50;57.00;;;;;;;;5067716;27;51254;-60
2022/03/06 08:28:32;;;;;;;;;75.25;58.50;;;;;;;;5067732;27;51924;-60
2022/03/06 08:30:58;;;;;;;;;71.25;56.25;;;;;;;;5066581;27;51245;-60
2022/03/06 08:33:24;;;;;;;;;67.50;54.50;;;;;;;;5072559;27;52088;-60
2022/03/06 08:35:49;;;;;;;;;72.25;55.75;;;;;;;;5067471;27;51379;-61
2022/03/06 08:38:14;;;;;;;;;72.00;57.00;;;;;;;;5068795;27;52783;-60
2022/03/06 08:40:39;;;;;;;;;69.50;54.75;;;;;;;;5069326;27;51119;-59
2022/03/06 08:43:05;;;;;;;;;68.75;54.75;;;;;;;;5072188;27;51118;-61
2022/03/06 08:45:30;;;;;;;;;64.25;50.75;;;;;;;;5068786;27;51145;-60
2022/03/06 08:47:55;;;;;;;;;69.50;53.00;;;;;;;;5067654;27;51085;-60
2022/03/06 08:50:21;;;;;;;;;66.25;53.00;;;;;;;;5104203;27;51213;-60
2022/03/06 08:52:46;;;;;;;;;64.75;51.75;;;;;;;;5068477;27;51005;-60
2022/03/06 08:55:11;;;;;;;;;68.00;53.25;;;;;;;;5073585;27;50968;-60
2022/03/06 08:57:37;;;;;;;;;68.50;54.75;;;;;;;;5072750;27;52014;-60
2022/03/06 09:00:04;;;;;;;;;62.00;50.50;;;;;;;;5068562;27;51429;-60
2022/03/06 09:02:29;;;;;;;;;64.25;51.00;;;;;;;;5069114;27;51059;-61
2022/03/06 09:04:54;;;;;;;;;64.75;52.75;;;;;;;;5067649;27;51291;-60
2022/03/06 09:07:19;;;;;;;;;65.00;52.25;;;;;;;;5071008;27;51989;-60
2022/03/06 09:09:45;;;;;;;;;65.75;52.75;;;;;;;;5070336;27;51156;-60
2022/03/06 09:12:10;;;;;;;;;63.25;51.00;;;;;;;;5071885;27;50929;-58
2022/03/06 09:14:35;;;;;;;;;65.00;51.50;;;;;;;;5070846;27;51416;-59
2022/03/06 09:17:00;;;;;;;;;67.25;54.00;;;;;;;;5068724;27;52236;-60
2022/03/06 09:19:26;;;;;;;;;63.50;49.75;;;;;;;;5071747;28;51173;-60
2022/03/06 09:21:51;;;;;;;;;62.75;50.25;;;;;;;;5072566;27;51171;-61
2022/03/06 09:24:16;;;;;;;;;56.75;45.50;;;;;;;;5070145;27;51843;-60
2022/03/06 09:26:43;;;;;;;;;54.50;45.75;;;;;;;;5072321;27;52144;-60
2022/03/06 09:29:08;;;;;;;;;59.75;47.25;;;;;;;;5070004;27;51381;-60
2022/03/06 09:31:33;;;;;;;;;58.50;47.75;;;;;;;;5071773;27;51216;-61
2022/03/06 09:33:58;;;;;;;;;58.00;47.00;;;;;;;;5071911;27;51183;-59
2022/03/06 09:36:24;;;;;;;;;58.25;46.25;;;;;;;;5071755;27;51866;-59
2022/03/06 09:38:49;;;;;;;;;54.50;44.25;;;;;;;;5068483;27;51177;-59
2022/03/06 09:41:15;;;;;;;;;56.50;45.50;;;;;;;;5064632;27;51242;-59
2022/03/06 09:43:40;;;;;;;;;53.25;44.75;;;;;;;;5068524;28;51386;-60
2022/03/06 09:46:07;;;;;;;;;57.50;45.25;;;;;;;;5071307;27;52714;-60
2022/03/06 09:48:32;;;;;;;;;47.00;39.50;;;;;;;;5070916;27;50980;-59
2022/03/06 09:50:58;;;;;;;;;54.25;45.00;;;;;;;;5070618;27;51104;-60
2022/03/06 09:53:23;;;;;;;;;51.00;42.25;;;;;;;;5071324;27;51269;-61
2022/03/06 09:55:48;;;;;;;;;50.00;41.75;;;;;;;;5071338;27;52091;-61
2022/03/06 09:58:14;;;;;;;;;49.75;40.75;;;;;;;;5076085;27;50982;-61
2022/03/06 10:00:39;;;;;;;;;49.50;41.50;;;;;;;;5071765;27;51264;-60
2022/03/06 10:03:05;;;;;;;;;49.75;40.50;;;;;;;;5072719;27;51106;-59
2022/03/06 10:05:33;;;;;;;;;53.50;43.75;;;;;;;;5070673;28;52070;-61
2022/03/06 10:08:13;;;;;;;;;52.25;43.75;;;;;;;;5069122;27;51267;-60
2022/03/06 10:10:39;;;;;;;;;47.00;39.00;;;;;;;;5071419;27;51717;-60
2022/03/06 10:13:07;;;;;;;;;45.50;38.25;;;;;;;;5072283;28;50887;-60
2022/03/06 10:15:52;;;;;;;;;48.50;38.50;;;;;;;;5072088;28;51029;-59
2022/03/06 10:18:18;;;;;;;;;47.25;38.00;;;;;;;;5067102;27;51198;-60
2022/03/06 10:20:43;;;;;;;;;46.50;39.00;;;;;;;;5071961;27;51333;-60
2022/03/06 10:23:22;;;;;;;;;41.75;34.75;;;;;;;;5068762;27;51215;-60
2022/03/06 10:25:58;;;;;;;;;39.50;35.50;;;;;;;;5069100;27;51131;-60
2022/03/06 10:28:24;;;;;;;;;45.25;36.50;;;;;;;;5070963;27;51119;-60
2022/03/06 10:30:49;;;;;;;;;41.25;35.00;;;;;;;;5070657;27;51320;-62
2022/03/06 10:33:18;;;;;;;;;39.00;33.75;;;;;;;;5070915;27;51266;-62
2022/03/06 10:35:45;;;;;;;;;45.50;37.25;;;;;;;;5070638;28;51095;-61
2022/03/06 10:38:27;;;;;;;;;48.25;40.50;;;;;;;;5065897;28;51237;-60
2022/03/06 10:40:53;;;;;;;;;46.00;36.75;;;;;;;;5070732;27;51175;-59
2022/03/06 10:43:18;;;;;;;;;40.25;35.00;;;;;;;;5069670;27;50964;-60
2022/03/06 10:45:44;;;;;;;;;38.00;33.25;;;;;;;;5071581;28;50969;-59
2022/03/06 10:48:10;;;;;;;;;53.25;43.75;;;;;;;;5071146;27;51079;-61
2022/03/06 10:50:35;;;;;;;;;45.00;38.25;;;;;;;;5064336;27;51145;-61
2022/03/06 10:53:00;;;;;;;;;58.75;47.75;;;;;;;;5067602;27;51016;-61
2022/03/06 10:55:32;;;;;;;;;41.25;36.75;;;;;;;;5072267;27;52173;-61
2022/03/06 10:57:58;;;;;;;;;39.75;35.00;;;;;;;;5068848;28;51276;-61
2022/03/06 11:00:23;;;;;;;;;36.25;32.75;;;;;;;;5070156;27;51181;-61
2022/03/06 11:02:48;;;;;;;;;30.75;29.75;;;;;;;;5066142;27;51276;-61
2022/03/06 11:05:14;;;;;;;;;26.75;25.75;;;;;;;;5069432;28;51294;-62
2022/03/06 11:07:39;;;;;;;;;28.25;27.25;;;;;;;;5060104;27;51308;-62
2022/03/06 11:10:04;;;;;;;;;32.00;30.00;;;;;;;;5063334;27;51274;-61
2022/03/06 11:12:30;;;;;;;;;32.50;30.50;;;;;;;;5067289;28;51131;-62
2022/03/06 11:14:55;;;;;;;;;19.75;18.75;;;;;;;;5067526;27;51786;-61
2022/03/06 11:17:21;;;;;;;;;29.00;26.50;;;;;;;;5069807;28;51026;-61
2022/03/06 11:19:46;;;;;;;;;28.25;24.50;;;;;;;;5067994;27;51946;-61
2022/03/06 11:22:32;;;;;;;;;29.25;28.25;;;;;;;;5065442;27;51192;-60
2022/03/06 11:25:02;;;;;;;;;30.25;29.00;;;;;;;;5066460;28;51135;-61
2022/03/06 11:27:39;;;;;;;;;29.00;26.00;;;;;;;;5067765;27;51181;-61
2022/03/06 11:30:08;;;;;;;;;28.50;27.75;;;;;;;;5068372;28;51271;-61
2022/03/06 11:32:35;;;;;;;;;31.00;29.75;;;;;;;;5069171;27;51012;-62
2022/03/06 11:35:10;;;;;;;;;32.75;28.75;;;;;;;;5069342;28;51884;-62
2022/03/06 11:37:48;;;;;;;;;29.50;27.25;;;;;;;;5063027;28;51197;-61
2022/03/06 11:40:31;;;;;;;;;28.50;28.00;;;;;;;;5063221;27;51301;-61
2022/03/06 11:42:57;;;;;;;;;25.00;23.25;;;;;;;;5067273;27;51729;-61
2022/03/06 11:45:41;;;;;;;;;24.50;23.25;;;;;;;;5059415;27;51380;-61
2022/03/06 11:48:06;;;;;;;;;26.25;23.75;;;;;;;;5066960;27;51331;-61
2022/03/06 11:50:31;;;;;;;;;29.00;28.00;;;;;;;;5069447;27;51152;-72
2022/03/06 11:52:57;;;;;;;;;25.25;23.50;;;;;;;;5071909;27;51338;-67
2022/03/06 11:55:30;;;;;;;;;30.50;26.50;;;;;;;;5073411;27;51379;-66
2022/03/06 11:57:55;;;;;;;;;30.75;29.00;;;;;;;;5074337;27;51238;-63
2022/03/06 12:00:21;;;;;;;;;38.00;32.25;;;;;;;;5073256;27;51139;-59
2022/03/06 12:02:47;;;;;;;;;32.50;29.75;;;;;;;;5065528;27;51243;-59
2022/03/06 12:05:14;;;;;;;;;23.75;23.25;;;;;;;;5067417;27;51216;-59
2022/03/06 12:07:40;;;;;;;;;25.00;25.00;;;;;;;;5077575;27;51146;-58
2022/03/06 12:10:10;;;;;;;;;30.25;28.25;;;;;;;;5073369;28;51243;-60
2022/03/06 12:12:35;;;;;;;;;29.25;27.75;;;;;;;;5072042;27;52060;-59
2022/03/06 12:15:11;;;;;;;;;26.00;24.25;;;;;;;;5072241;27;52119;-59
2022/03/06 12:17:37;;;;;;;;;28.00;26.25;;;;;;;;5069787;27;51239;-61
2022/03/06 12:20:02;;;;;;;;;26.00;25.00;;;;;;;;5072276;27;51151;-59
2022/03/06 12:22:28;;;;;;;;;22.00;20.50;;;;;;;;5067756;28;51739;-59
2022/03/06 12:25:11;;;;;;;;;28.50;27.50;;;;;;;;5073026;27;52027;-60
2022/03/06 12:27:41;;;;;;;;;29.50;28.25;;;;;;;;5072826;27;50992;-60
2022/03/06 12:30:10;;;;;;;;;28.50;27.00;;;;;;;;5071583;28;52086;-59
2022/03/06 12:32:37;;;;;;;;;19.75;17.50;;;;;;;;5070951;28;51432;-60
2022/03/06 12:35:06;;;;;;;;;19.50;19.25;;;;;;;;5073420;28;52265;-59
2022/03/06 12:37:33;;;;;;;;;27.50;27.00;;;;;;;;5072330;27;51190;-59
2022/03/06 12:39:59;;;;;;;;;27.00;25.75;;;;;;;;5073689;28;50889;-60
2022/03/06 12:42:26;;;;;;;;;27.50;25.50;;;;;;;;5064300;27;51378;-59
2022/03/06 12:44:55;;;;;;;;;29.00;29.00;;;;;;;;5068061;27;52014;-59
2022/03/06 12:47:21;;;;;;;;;20.50;18.75;;;;;;;;5062066;27;51886;-59
2022/03/06 12:49:47;;;;;;;;;32.00;28.50;;;;;;;;5072201;27;51247;-60
2022/03/06 12:52:15;;;;;;;;;26.00;24.75;;;;;;;;5066461;27;51121;-60
2022/03/06 12:54:44;;;;;;;;;32.00;28.75;;;;;;;;5060513;27;52257;-60
2022/03/06 12:57:09;;;;;;;;;30.75;26.50;;;;;;;;5068749;28;51030;-60
2022/03/06 12:59:39;;;;;;;;;25.75;24.00;;;;;;;;5068166;27;52088;-60
2022/03/06 13:02:05;;;;;;;;;27.50;26.50;;;;;;;;5070556;27;51139;-59
2022/03/06 13:04:31;;;;;;;;;24.50;22.75;;;;;;;;5065496;27;52026;-59
2022/03/06 13:06:56;;;;;;;;;24.25;23.75;;;;;;;;5069538;27;51114;-58
2022/03/06 13:09:23;;;;;;;;;25.00;24.00;;;;;;;;5069518;27;51154;-59
2022/03/06 13:11:49;;;;;;;;;27.25;26.00;;;;;;;;5068136;27;51006;-59
2022/03/06 13:14:15;;;;;;;;;32.75;32.00;;;;;;;;5068114;28;54465;-60
2022/03/06 13:16:41;;;;;;;;;30.00;29.25;;;;;;;;5066062;27;51200;-59
2022/03/06 13:19:07;;;;;;;;;18.00;15.00;;;;;;;;5068745;28;51084;-59
2022/03/06 13:21:37;;;;;;;;;27.75;24.25;;;;;;;;5072900;27;52003;-59
2022/03/06 13:24:04;;;;;;;;;29.00;26.00;;;;;;;;5069984;28;51628;-58
2022/03/06 13:26:30;;;;;;;;;32.00;29.75;;;;;;;;5066326;27;51203;-59
2022/03/06 13:28:56;;;;;;;;;30.25;29.25;;;;;;;;5065745;28;51183;-60
2022/03/06 13:31:22;;;;;;;;;34.50;31.50;;;;;;;;5071724;28;51463;-58
2022/03/06 13:34:21;;;;;;;;;29.50;27.00;;;;;;;;5072632;28;52021;-59
2022/03/06 13:36:47;;;;;;;;;34.00;32.25;;;;;;;;5038075;28;51091;-59
2022/03/06 13:39:17;;;;;;;;;33.00;28.75;;;;;;;;5071807;28;51449;-59
2022/03/06 13:41:49;;;;;;;;;29.25;27.25;;;;;;;;5066046;27;51119;-60
2022/03/06 13:44:15;;;;;;;;;30.50;27.75;;;;;;;;5067724;27;51706;-59
2022/03/06 13:46:41;;;;;;;;;33.50;29.25;;;;;;;;5060595;27;52622;-59
2022/03/06 13:49:11;;;;;;;;;18.25;16.50;;;;;;;;5067029;27;51859;-59
2022/03/06 13:51:36;;;;;;;;;32.25;30.50;;;;;;;;5067136;27;51051;-60
2022/03/06 13:54:03;;;;;;;;;32.75;28.75;;;;;;;;5069351;28;52141;-59
2022/03/06 13:56:30;;;;;;;;;26.25;26.25;;;;;;;;5070153;28;51103;-60
2022/03/06 13:58:55;;;;;;;;;27.75;27.00;;;;;;;;5070735;28;51197;-59
2022/03/06 14:01:20;;;;;;;;;26.75;26.25;;;;;;;;5070660;27;51138;-58
2022/03/06 14:03:46;;;;;;;;;35.75;32.50;;;;;;;;5068814;28;51165;-59
2022/03/06 14:06:12;;;;;;;;;27.50;22.75;;;;;;;;5071110;27;51213;-60
2022/03/06 14:08:38;;;;;;;;;28.00;26.75;;;;;;;;5070412;27;51005;-58
2022/03/06 14:11:04;;;;;;;;;28.75;27.75;;;;;;;;5063584;27;51238;-60